createdAt,value
2023-02-24T00:02:20.223Z,98130.97
2023-02-24T00:05:23.805Z,98135.97
2023-02-24T00:08:35.470Z,98130.69
2023-02-24T00:11:39.220Z,98128.06
2023-02-24T00:14:43.470Z,98129.03
2023-02-24T00:17:48.802Z,98118.22
2023-02-24T00:20:53.328Z,98126.50
2023-02-24T00:23:59.315Z,98132.38
2023-02-24T00:27:07.616Z,98125.03
2023-02-24T00:30:12.085Z,98119.00
2023-02-24T00:33:16.029Z,98115.72
2023-02-24T00:36:23.987Z,98115.66
2023-02-24T00:39:33.492Z,98113.72
2023-02-24T00:42:36.140Z,98114.66
2023-02-24T00:45:39.136Z,98113.94
2023-02-24T00:48:42.162Z,98109.41
2023-02-24T00:51:46.596Z,98108.38
2023-02-24T00:54:51.170Z,98106.75
2023-02-24T00:57:54.255Z,98098.88
2023-02-24T01:00:57.989Z,98100.78
2023-02-24T01:04:01.659Z,98106.63
2023-02-24T01:07:10.168Z,98104.22
2023-02-24T01:10:14.271Z,98098.41
2023-02-24T01:13:15.960Z,98097.66
2023-02-24T01:16:19.622Z,98098.84
2023-02-24T01:19:23.091Z,98091.81
2023-02-24T01:22:25.756Z,98090.44
2023-02-24T01:25:31.307Z,98093.28
2023-02-24T01:28:33.857Z,98085.28
2023-02-24T01:31:38.362Z,98078.03
2023-02-24T01:34:42.435Z,98070.00
2023-02-24T01:37:45.596Z,98078.69
2023-02-24T01:40:56.910Z,98071.09
2023-02-24T01:44:02.873Z,98072.16
2023-02-24T01:47:05.409Z,98077.59
2023-02-24T01:50:09.921Z,98064.44
2023-02-24T01:53:14.492Z,98060.06
2023-02-24T01:56:18.861Z,98056.34
2023-02-24T01:59:22.053Z,98057.28
2023-02-24T02:02:25.089Z,98062.81
2023-02-24T02:05:27.822Z,98064.53
2023-02-24T02:08:30.893Z,98060.41
2023-02-24T02:11:35.115Z,98065.78
2023-02-24T02:14:39.929Z,98058.38
2023-02-24T02:17:48.034Z,98056.53
2023-02-24T02:21:19.785Z,98050.44
2023-02-24T02:24:48.564Z,98046.22
2023-02-24T02:28:13.221Z,98042.34
2023-02-24T02:31:39.310Z,98034.34
2023-02-24T02:34:50.427Z,98042.63
2023-02-24T02:37:57.405Z,98037.56
2023-02-24T02:41:03.436Z,98034.03
2023-02-24T02:44:09.847Z,98028.97
2023-02-24T02:47:14.775Z,98022.38
2023-02-24T02:50:21.462Z,98030.97
2023-02-24T02:53:28.732Z,98016.03
2023-02-24T02:56:34.267Z,98016.53
2023-02-24T02:59:38.896Z,98010.13
2023-02-24T03:02:48.173Z,98008.00
2023-02-24T03:05:56.284Z,98016.31
2023-02-24T03:09:01.023Z,98008.94
2023-02-24T03:12:08.097Z,98004.81
2023-02-24T03:15:12.054Z,97997.41
2023-02-24T03:18:19.309Z,97996.03
2023-02-24T03:21:30.586Z,97991.00
2023-02-24T03:24:36.457Z,97984.31
2023-02-24T03:27:44.420Z,97984.50
2023-02-24T03:30:52.283Z,97976.19
2023-02-24T03:34:00.554Z,97978.38
2023-02-24T03:37:04.701Z,97980.56
2023-02-24T03:40:11.583Z,97980.78
2023-02-24T03:43:17.899Z,97977.97
2023-02-24T03:46:20.646Z,97981.47
2023-02-24T03:49:25.432Z,97982.41
2023-02-24T03:52:36.123Z,97982.41
2023-02-24T03:55:43.439Z,97984.91
2023-02-24T03:58:55.161Z,97977.56
2023-02-24T04:02:00.717Z,97970.31
2023-02-24T04:05:10.592Z,97976.56
2023-02-24T04:08:15.975Z,97979.19
2023-02-24T04:11:24.103Z,97982.03
2023-02-24T04:14:32.743Z,97980.44
2023-02-24T04:17:39.649Z,97980.19
2023-02-24T04:20:49.383Z,97977.63
2023-02-24T04:23:53.717Z,97982.06
2023-02-24T04:26:59.172Z,97974.75
2023-02-24T04:30:04.821Z,97975.94
2023-02-24T04:33:08.034Z,97967.25
2023-02-24T04:36:12.878Z,97968.50
2023-02-24T04:39:18.909Z,97969.59
2023-02-24T04:42:22.255Z,97970.28
2023-02-24T04:45:27.341Z,97966.19
2023-02-24T04:48:30.128Z,97956.41
2023-02-24T04:51:33.948Z,97956.09
2023-02-24T04:54:39.558Z,97957.78
2023-02-24T04:57:42.162Z,97947.50
2023-02-24T05:00:44.700Z,97946.09
2023-02-24T05:03:47.716Z,97940.69
2023-02-24T05:06:50.389Z,97933.63
2023-02-24T05:09:54.987Z,97930.06
2023-02-24T05:13:00.841Z,97933.50
2023-02-24T05:16:08.164Z,97932.56
2023-02-24T05:19:28.633Z,97922.19
2023-02-24T05:22:31.324Z,97914.59
2023-02-24T05:25:37.703Z,97903.31
2023-02-24T05:28:41.733Z,97907.03
2023-02-24T05:31:44.920Z,97911.13
2023-02-24T05:34:48.064Z,97896.44
2023-02-24T05:37:51.667Z,97897.34
2023-02-24T05:41:04.588Z,97887.59
2023-02-24T05:44:09.539Z,97894.47
2023-02-24T05:47:12.318Z,97894.88
2023-02-24T05:50:14.921Z,97885.88
2023-02-24T05:53:19.023Z,97884.75
2023-02-24T05:56:23.455Z,97873.00
2023-02-24T05:59:29.081Z,97881.69
2023-02-24T06:02:37.737Z,97877.34
2023-02-24T06:05:42.505Z,97880.75
2023-02-24T06:08:50.281Z,97876.69
2023-02-24T06:11:54.461Z,97880.00
2023-02-24T06:14:58.089Z,97875.59
2023-02-24T06:18:02.050Z,97871.91
2023-02-24T06:21:07.265Z,97877.75
2023-02-24T06:24:14.371Z,97876.03
2023-02-24T06:27:21.451Z,97872.84
2023-02-24T06:30:24.847Z,97872.94
2023-02-24T06:33:27.511Z,97875.81
2023-02-24T06:36:30.068Z,97867.97
2023-02-24T06:39:36.251Z,97874.22
2023-02-24T06:42:40.653Z,97860.66
2023-02-24T06:45:43.276Z,97865.84
2023-02-24T06:48:48.123Z,97864.91
2023-02-24T06:51:50.735Z,97866.94
2023-02-24T06:54:53.291Z,97859.91
2023-02-24T06:57:58.915Z,97850.16
2023-02-24T07:01:02.693Z,97850.81
2023-02-24T07:04:18.807Z,97851.84
2023-02-24T07:07:22.597Z,97858.94
2023-02-24T07:10:25.164Z,97857.44
2023-02-24T07:13:29.923Z,97854.06
2023-02-24T07:16:34.635Z,97853.25
2023-02-24T07:19:37.486Z,97848.47
2023-02-24T07:22:47.619Z,97840.41
2023-02-24T07:25:50.438Z,97849.00
2023-02-24T07:28:56.684Z,97844.00
2023-02-24T07:32:01.425Z,97841.63
2023-02-24T07:35:04.601Z,97843.09
2023-02-24T07:38:11.586Z,97837.88
2023-02-24T07:41:19.171Z,97834.72
2023-02-24T07:44:24.526Z,97827.34
2023-02-24T07:47:27.276Z,97834.28
2023-02-24T07:50:32.823Z,97842.94
2023-02-24T07:53:35.572Z,97846.56
2023-02-24T07:56:46.111Z,97839.84
2023-02-24T07:59:50.387Z,97834.28
2023-02-24T08:02:56.677Z,97831.06
2023-02-24T08:06:12.911Z,97830.84
2023-02-24T08:09:20.517Z,97830.28
2023-02-24T08:12:23.615Z,97829.72
2023-02-24T08:16:02.732Z,97822.06
2023-02-24T08:19:05.392Z,97816.50
2023-02-24T08:22:20.172Z,97822.78
2023-02-24T08:25:25.770Z,97819.03
2023-02-24T08:28:28.379Z,97813.81
2023-02-24T08:31:32.785Z,97810.81
2023-02-24T08:34:35.885Z,97805.75
2023-02-24T08:37:40.507Z,97801.88
2023-02-24T08:40:51.589Z,97793.03
2023-02-24T08:43:54.285Z,97793.72
2023-02-24T08:47:00.704Z,97795.06
2023-02-24T08:50:07.125Z,97795.56
2023-02-24T08:53:10.612Z,97785.78
2023-02-24T08:56:24.257Z,97788.00
2023-02-24T08:59:38.856Z,97779.72
2023-02-24T09:02:42.931Z,97773.56
2023-02-24T09:05:46.239Z,97772.53
2023-02-24T09:08:49.229Z,97777.69
2023-02-24T09:11:56.557Z,97767.50
2023-02-24T09:15:04.579Z,97761.66
2023-02-24T09:18:08.601Z,97767.06
2023-02-24T09:21:38.700Z,97760.00
2023-02-24T09:24:41.498Z,97758.31
2023-02-24T09:27:44.251Z,97762.03
2023-02-24T09:30:53.448Z,97747.81
2023-02-24T09:34:01.737Z,97755.22
2023-02-24T09:37:05.370Z,97762.03
2023-02-24T09:40:39.530Z,97752.50
2023-02-24T09:43:48.290Z,97748.84
2023-02-24T09:46:54.849Z,97746.53
2023-02-24T09:50:04.535Z,97743.28
2023-02-24T09:53:28.653Z,97736.63
2023-02-24T09:56:42.479Z,97737.00
2023-02-24T10:00:02.359Z,97738.06
2023-02-24T10:03:19.637Z,97738.81
2023-02-24T10:06:35.179Z,97725.31
2023-02-24T10:09:40.649Z,97725.19
2023-02-24T10:12:43.523Z,97729.41
2023-02-24T10:16:06.234Z,97721.72
2023-02-24T10:19:19.616Z,97727.25
2023-02-24T10:22:30.564Z,97724.78
2023-02-24T10:25:53.809Z,97714.94
2023-02-24T10:29:00.530Z,97713.00
2023-02-24T10:32:23.990Z,97716.63
2023-02-24T10:35:33.738Z,97712.41
2023-02-24T10:38:40.807Z,97710.00
2023-02-24T10:41:48.041Z,97702.97
2023-02-24T10:45:01.926Z,97702.63
2023-02-24T10:48:08.924Z,97707.06
2023-02-24T10:51:20.575Z,97698.13
2023-02-24T10:54:45.249Z,97687.88
2023-02-24T10:57:59.030Z,97684.16
2023-02-24T11:01:18.463Z,97681.59
2023-02-24T11:04:33.478Z,97686.25
2023-02-24T11:07:45.423Z,97675.44
2023-02-24T11:11:07.107Z,97666.13
2023-02-24T11:14:34.237Z,97674.72
2023-02-24T11:17:37.599Z,97658.13
2023-02-24T11:20:49.487Z,97661.06
2023-02-24T11:23:54.036Z,97651.25
2023-02-24T11:26:58.537Z,97646.56
2023-02-24T11:30:14.901Z,97639.91
2023-02-24T11:33:25.800Z,97637.94
2023-02-24T11:36:33.248Z,97638.13
2023-02-24T11:39:48.560Z,97629.19
2023-02-24T11:42:54.772Z,97630.78
2023-02-24T11:46:01.403Z,97627.84
2023-02-24T11:49:10.186Z,97619.25
2023-02-24T11:52:17.026Z,97607.03
2023-02-24T11:55:27.347Z,97595.25
2023-02-24T11:58:36.682Z,97576.28
2023-02-24T12:01:44.366Z,97565.03
2023-02-24T12:04:53.141Z,97562.13
2023-02-24T12:07:58.822Z,97555.38
2023-02-24T12:11:04.981Z,97544.19
2023-02-24T12:14:18.306Z,97542.88
2023-02-24T12:17:27.210Z,97534.84
2023-02-24T12:20:34.966Z,97517.88
2023-02-24T12:23:39.281Z,97521.69
2023-02-24T12:26:49.008Z,97521.31
2023-02-24T12:30:06.514Z,97515.94
2023-02-24T12:33:23.256Z,97501.22
2023-02-24T12:36:36.329Z,97496.50
2023-02-24T12:39:43.150Z,97484.25
2023-02-24T12:42:50.100Z,97480.13
2023-02-24T12:46:00.080Z,97476.78
2023-02-24T12:49:17.871Z,97477.38
2023-02-24T12:52:25.893Z,97476.38
2023-02-24T12:55:32.276Z,97477.91
2023-02-24T12:58:38.246Z,97475.59
2023-02-24T13:01:48.469Z,97468.09
2023-02-24T13:04:57.094Z,97466.69
2023-02-24T13:08:16.025Z,97463.03
2023-02-24T13:11:27.536Z,97456.16
2023-02-24T13:14:32.971Z,97463.59
2023-02-24T13:17:47.952Z,97446.78
2023-02-24T13:21:03.598Z,97443.50
2023-02-24T13:24:07.257Z,97441.34
2023-02-24T13:27:22.484Z,97425.00
2023-02-24T13:30:28.163Z,97415.59
2023-02-24T13:33:33.919Z,97416.41
2023-02-24T13:36:47.395Z,97411.00
2023-02-24T13:39:52.914Z,97419.25
2023-02-24T13:43:00.929Z,97407.84
2023-02-24T13:46:05.730Z,97407.81
2023-02-24T13:49:23.842Z,97394.38
2023-02-24T13:52:37.873Z,97382.56
2023-02-24T13:55:52.295Z,97377.94
2023-02-24T13:59:06.039Z,97376.00
2023-02-24T14:02:13.638Z,97375.56
2023-02-24T14:05:22.356Z,97371.00
2023-02-24T14:08:28.931Z,97371.19
2023-02-24T14:11:34.902Z,97382.91
2023-02-24T14:14:37.768Z,97373.06
2023-02-24T14:17:40.415Z,97375.75
2023-02-24T14:20:45.276Z,97377.53
2023-02-24T14:23:57.126Z,97370.94
2023-02-24T14:27:00.394Z,97367.16
2023-02-24T14:30:02.961Z,97358.09
2023-02-24T14:33:07.407Z,97355.19
2023-02-24T14:36:17.679Z,97363.22
2023-02-24T14:39:22.881Z,97357.25
2023-02-24T14:42:26.957Z,97346.31
2023-02-24T14:45:30.813Z,97322.97
2023-02-24T14:48:33.458Z,97324.53
2023-02-24T14:51:37.605Z,97328.25
2023-02-24T14:54:44.590Z,97328.06
2023-02-24T14:57:51.955Z,97336.84
2023-02-24T15:00:56.454Z,97333.94
2023-02-24T15:04:01.497Z,97324.47
2023-02-24T15:07:07.878Z,97328.66
2023-02-24T15:10:21.154Z,97325.41
2023-02-24T15:13:31.630Z,97295.56
2023-02-24T15:16:39.282Z,97304.84
2023-02-24T15:20:08.870Z,97304.31
2023-02-24T15:23:27.270Z,97289.72
2023-02-24T15:26:32.377Z,97288.00
2023-02-24T15:29:35.145Z,97295.34
2023-02-24T15:32:38.844Z,97288.88
2023-02-24T15:35:49.152Z,97282.25
2023-02-24T15:38:54.848Z,97283.03
2023-02-24T15:42:08.711Z,97281.38
2023-02-24T15:45:23.739Z,97278.75
2023-02-24T15:48:39.032Z,97275.19
2023-02-24T15:51:44.557Z,97266.91
2023-02-24T15:54:48.595Z,97262.63
2023-02-24T15:57:58.741Z,97263.75
2023-02-24T16:01:02.554Z,97271.34
2023-02-24T16:04:05.732Z,97264.91
2023-02-24T16:07:10.921Z,97262.97
2023-02-24T16:10:19.517Z,97256.38
2023-02-24T16:13:24.415Z,97253.75
2023-02-24T16:16:27.782Z,97249.06
2023-02-24T16:19:38.088Z,97244.13
2023-02-24T16:22:40.779Z,97247.28
2023-02-24T16:25:46.292Z,97242.53
2023-02-24T16:28:53.457Z,97247.84
2023-02-24T16:31:56.297Z,97261.09
2023-02-24T16:34:59.461Z,97256.28
2023-02-24T16:38:02.405Z,97244.75
2023-02-24T16:41:06.838Z,97241.13
2023-02-24T16:44:10.699Z,97240.41
2023-02-24T16:47:17.884Z,97245.91
2023-02-24T16:50:24.168Z,97246.63
2023-02-24T16:53:26.879Z,97252.94
2023-02-24T16:56:30.808Z,97244.69
2023-02-24T16:59:33.694Z,97236.75
2023-02-24T17:02:36.325Z,97229.59
2023-02-24T17:05:39.167Z,97229.72
2023-02-24T17:08:43.680Z,97232.88
2023-02-24T17:11:48.078Z,97230.34
2023-02-24T17:14:50.742Z,97228.41
2023-02-24T17:17:53.600Z,97237.47
2023-02-24T17:20:56.403Z,97251.94
2023-02-24T17:23:59.379Z,97246.66
2023-02-24T17:27:04.251Z,97243.59
2023-02-24T17:30:08.319Z,97249.78
2023-02-24T17:33:11.104Z,97252.94
2023-02-24T17:36:13.752Z,97255.84
2023-02-24T17:39:16.364Z,97266.91
2023-02-24T17:42:20.358Z,97262.06
2023-02-24T17:45:23.056Z,97253.75
2023-02-24T17:48:26.003Z,97260.06
2023-02-24T17:51:29.700Z,97256.56
2023-02-24T17:54:32.176Z,97252.94
2023-02-24T17:57:37.349Z,97250.22
2023-02-24T18:00:40.225Z,97246.97
2023-02-24T18:03:42.934Z,97251.28
2023-02-24T18:06:45.655Z,97248.38
2023-02-24T18:09:48.280Z,97254.44
2023-02-24T18:12:52.469Z,97257.34
2023-02-24T18:15:55.392Z,97249.22
2023-02-24T18:18:58.026Z,97250.03
2023-02-24T18:22:00.926Z,97247.03
2023-02-24T18:25:03.600Z,97253.91
2023-02-24T18:28:07.826Z,97257.88
2023-02-24T18:31:12.553Z,97255.50
2023-02-24T18:34:15.406Z,97249.59
2023-02-24T18:37:17.945Z,97238.31
2023-02-24T18:40:20.879Z,97244.75
2023-02-24T18:43:25.157Z,97248.00
2023-02-24T18:46:28.411Z,97256.19
2023-02-24T18:49:31.385Z,97253.75
2023-02-24T18:52:34.695Z,97255.59
2023-02-24T18:55:37.279Z,97248.09
2023-02-24T18:58:41.657Z,97258.97
2023-02-24T19:01:44.469Z,97264.28
2023-02-24T19:04:47.745Z,97261.28
2023-02-24T19:07:50.607Z,97253.44
2023-02-24T19:10:53.565Z,97254.19
2023-02-24T19:13:58.957Z,97245.69
2023-02-24T19:17:03.479Z,97248.63
2023-02-24T19:20:07.459Z,97253.25
2023-02-24T19:23:10.072Z,97252.84
2023-02-24T19:26:17.535Z,97245.31
2023-02-24T19:29:22.283Z,97251.16
2023-02-24T19:32:25.494Z,97259.41
2023-02-24T19:35:28.064Z,97255.50
2023-02-24T19:38:30.745Z,97255.69
2023-02-24T19:41:33.598Z,97246.28
2023-02-24T19:44:37.889Z,97250.44
2023-02-24T19:47:42.647Z,97256.50
2023-02-24T19:50:46.181Z,97257.69
2023-02-24T19:53:52.343Z,97256.19
2023-02-24T19:56:58.042Z,97237.03
2023-02-24T20:00:04.052Z,97235.63
2023-02-24T20:03:06.840Z,97248.81
2023-02-24T20:06:17.875Z,97237.75
2023-02-24T20:09:22.185Z,97238.94
2023-02-24T20:12:26.832Z,97231.34
2023-02-24T20:18:35.260Z,97257.44
2023-02-24T20:21:39.845Z,97253.53
2023-02-24T20:24:42.751Z,97252.91
2023-02-24T20:27:46.369Z,97252.56
2023-02-24T20:30:50.800Z,97259.69
2023-02-24T20:33:54.200Z,97266.91
2023-02-24T20:36:56.852Z,97260.59
2023-02-24T20:40:00.120Z,97262.75
2023-02-24T20:43:02.676Z,97262.50
2023-02-24T20:46:13.753Z,97271.03
2023-02-24T20:49:16.391Z,97271.31
2023-02-24T20:52:19.039Z,97276.53
2023-02-24T20:55:24.212Z,97289.34
2023-02-24T20:58:26.873Z,97297.09
2023-02-24T21:01:31.842Z,97285.28
2023-02-24T21:04:34.480Z,97294.91
2023-02-24T21:07:38.192Z,97284.94
2023-02-24T21:10:41.051Z,97290.50
2023-02-24T21:13:44.656Z,97285.16
2023-02-24T21:16:49.618Z,97297.75
2023-02-24T21:19:52.254Z,97294.88
2023-02-24T21:22:54.886Z,97314.19
2023-02-24T21:25:57.715Z,97331.22
2023-02-24T21:29:00.273Z,97339.75
2023-02-24T21:32:04.378Z,97341.19
2023-02-24T21:35:07.216Z,97336.66
2023-02-24T21:38:09.984Z,97344.84
2023-02-24T21:41:14.725Z,97338.28
2023-02-24T21:44:17.646Z,97356.19
2023-02-24T21:47:21.574Z,97365.91
2023-02-24T21:50:24.433Z,97373.28
2023-02-24T21:53:28.114Z,97380.25
2023-02-24T21:56:31.032Z,97376.94
2023-02-24T21:59:33.864Z,97380.63
2023-02-24T22:02:38.039Z,97385.25
2023-02-24T22:05:40.613Z,97387.13
2023-02-24T22:08:45.518Z,97388.91
2023-02-24T22:11:49.583Z,97405.63
2023-02-24T22:14:52.036Z,97396.41
2023-02-24T22:17:55.949Z,97399.13
2023-02-24T22:20:58.563Z,97396.72
2023-02-24T22:24:02.971Z,97397.94
2023-02-24T22:27:05.629Z,97392.19
2023-02-24T22:30:09.845Z,97393.28
2023-02-24T22:33:13.905Z,97392.66
2023-02-24T22:36:17.971Z,97403.16
2023-02-24T22:39:20.690Z,97395.50
2023-02-24T22:42:23.229Z,97389.13
2023-02-24T22:45:25.798Z,97390.56
2023-02-24T22:48:30.664Z,97386.91
2023-02-24T22:51:33.281Z,97374.50
2023-02-24T22:54:35.873Z,97382.16
2023-02-24T22:57:38.565Z,97390.56
2023-02-24T23:00:41.570Z,97393.28
2023-02-24T23:03:46.803Z,97392.97
2023-02-24T23:06:49.359Z,97400.50
2023-02-24T23:09:53.362Z,97400.63
2023-02-24T23:12:56.979Z,97399.03
2023-02-24T23:16:03.305Z,97397.31
2023-02-24T23:19:10.525Z,97405.44
2023-02-24T23:22:14.624Z,97394.44
2023-02-24T23:25:17.462Z,97405.75
2023-02-24T23:28:20.191Z,97405.47
2023-02-24T23:31:22.959Z,97413.22
2023-02-24T23:34:27.195Z,97409.25
2023-02-24T23:37:29.948Z,97404.03
2023-02-24T23:40:44.339Z,97413.22
2023-02-24T23:43:51.676Z,97418.00
2023-02-24T23:46:54.661Z,97428.09
2023-02-24T23:49:58.874Z,97430.31
2023-02-24T23:53:01.717Z,97425.22
2023-02-24T23:56:08.625Z,97427.97
2023-02-24T23:59:11.870Z,97442.94
